WOLFEBORO: From 08/05/2019 17:00 to 08/20/2019 07:00

Date PRECIPITATION INCREMENT [IN] AIR TEMPERATURE [DEGF] RELATIVE HUMIDITY [%] BAROMETRIC PRESSURE [INHG] AVERAGE WIND SPEED [FT/S] MAXIMUM WIND SPEED [FT/S] MINIMUM WIND SPEED [FT/S] AVERAGE WIND DIRECTION [] MAXIMUM WIND DIRECTION [] MINIMUM WIND DIRECTION []
08/19/2019 20:00 0.00 -- -- 29.26 0.00 0.00 0.00 0.0 28.7 0.0
08/19/2019 19:00 0.00 82.0 63.3 29.26 0.00 0.50 0.00 0.0 27.3 0.0
08/19/2019 18:00 0.00 85.0 56.1 29.27 0.00 2.00 0.00 0.8 44.8 0.0
08/19/2019 17:00 0.60 74.0 82.5 29.27 2.00 13.25 0.00 1.5 75.8 0.0
08/19/2019 16:00 0.00 83.0 60.6 29.27 0.75 5.50 0.00 0.3 67.5 0.0
08/19/2019 15:00 0.00 90.0 37.0 29.29 1.25 6.50 0.00 0.0 46.5 0.0
08/19/2019 14:00 0.00 87.0 42.1 29.30 1.00 6.25 0.00 0.0 37.5 0.0
08/19/2019 13:00 0.00 83.0 51.7 29.31 0.25 4.50 0.00 0.0 35.8 0.0
08/19/2019 12:00 0.00 78.0 63.6 29.32 0.75 5.00 0.00 0.0 37.5 0.0
08/19/2019 11:00 0.00 76.0 67.9 29.32 0.25 3.75 0.00 0.0 32.3 0.0
08/19/2019 10:00 0.00 73.0 73.8 29.34 0.00 2.50 0.00 0.0 33.3 0.0
08/19/2019 09:00 0.00 71.0 79.7 29.34 0.00 0.00 0.00 0.3 30.5 0.0
08/19/2019 08:00 0.00 70.0 83.6 29.34 0.00 0.50 0.00 0.0 11.5 0.0
08/19/2019 07:00 0.00 70.0 83.8 29.34 0.00 0.00 0.00 0.3 10.8 0.0
08/19/2019 06:00 0.00 70.0 83.5 29.34 0.00 1.00 0.00 0.0 38.5 0.0
08/19/2019 05:00 0.00 69.0 83.4 29.33 0.00 0.75 0.00 0.0 0.0 0.0
08/19/2019 04:00 0.01 70.0 83.3 29.32 0.00 0.75 0.00 0.0 0.0 0.0
08/19/2019 03:00 0.00 70.0 83.5 29.30 0.50 4.75 0.00 0.0 33.3 0.0
08/19/2019 02:00 0.19 70.0 83.6 29.33 1.00 6.25 0.00 0.0 0.0 0.0
08/19/2019 01:00 0.17 70.0 81.1 29.36 0.25 3.00 0.00 0.0 36.5 0.0
08/19/2019 00:00 0.00 73.0 69.9 29.36 0.00 2.75 0.00 0.0 18.3 0.0
08/18/2019 23:00 0.00 74.0 62.0 29.36 0.25 2.75 0.00 0.0 0.0 0.0
08/18/2019 22:00 0.00 75.0 61.6 29.36 0.50 5.50 0.00 0.0 9.5 0.0
08/18/2019 21:00 0.00 77.0 64.3 29.34 1.75 9.75 0.00 0.0 1.3 0.0
08/18/2019 20:00 0.00 82.0 48.4 29.34 0.00 0.75 0.00 0.0 8.8 0.0
08/18/2019 19:00 0.00 89.0 30.9 29.35 0.00 0.00 0.00 0.3 58.3 0.0
08/18/2019 18:00 0.00 90.0 26.5 29.35 0.00 0.00 0.00 0.0 19.8 0.0
08/18/2019 17:00 0.00 90.0 26.9 29.37 0.00 2.50 0.00 0.0 53.8 0.0
08/18/2019 16:00 0.00 88.0 30.8 29.38 0.00 1.25 0.00 0.3 48.0 0.0
08/18/2019 15:00 0.00 85.0 34.9 29.38 0.00 0.00 0.00 0.0 42.8 0.0
08/18/2019 14:00 0.00 82.0 43.1 29.38 0.25 3.50 0.00 0.0 43.3 0.0
08/18/2019 13:00 0.00 78.0 49.2 29.40 0.25 4.50 0.00 0.0 35.8 0.0
08/18/2019 12:00 0.00 73.0 64.2 29.41 0.50 4.25 0.00 0.0 43.5 0.0
08/18/2019 11:00 0.00 72.0 67.6 29.41 0.00 3.25 0.00 0.0 26.3 0.0
08/18/2019 10:00 0.00 70.0 69.8 29.41 0.50 4.75 0.00 0.0 22.5 0.0
08/18/2019 09:00 0.00 68.0 76.7 29.40 0.00 1.75 0.00 0.0 23.8 0.0
08/18/2019 08:00 0.00 67.0 83.6 29.38 0.00 1.75 0.00 0.0 40.8 0.0
08/18/2019 07:00 0.00 67.0 83.5 29.36 0.00 0.75 0.00 0.3 39.0 0.0
08/18/2019 06:00 0.00 67.0 83.3 29.36 0.00 0.50 0.00 0.0 40.0 0.0
08/18/2019 05:00 0.00 67.0 83.8 29.36 0.00 2.00 0.00 1.0 59.0 0.0
08/18/2019 04:00 0.00 67.0 83.6 29.36 0.00 2.00 0.00 1.0 59.0 0.0
08/18/2019 03:00 0.00 67.0 83.5 29.39 0.00 0.33 0.00 0.3 42.3 0.0
08/18/2019 02:00 0.00 67.0 83.3 29.39 0.00 1.25 0.00 0.5 50.8 0.0
08/18/2019 01:00 0.00 67.0 82.8 29.37 0.25 2.50 0.00 0.0 12.5 0.0
08/18/2019 00:00 0.04 67.0 82.6 29.38 1.00 6.25 0.00 0.0 22.8 0.0
08/17/2019 23:00 0.07 68.0 81.9 29.41 0.50 5.75 0.00 0.0 37.5 0.0
08/17/2019 22:00 0.00 69.0 77.0 29.39 2.00 8.00 0.00 0.0 0.0 0.0
08/17/2019 21:00 0.00 70.0 74.6 29.39 1.00 5.75 0.00 0.0 0.0 0.0
08/17/2019 20:00 0.00 71.0 71.9 29.39 1.25 6.00 0.00 0.0 0.0 0.0
08/17/2019 19:00 0.00 72.0 71.3 29.39 1.25 6.25 0.00 0.0 0.0 0.0
08/17/2019 18:00 0.00 74.0 63.0 29.40 2.25 9.75 0.00 0.0 0.0 0.0
08/17/2019 17:00 0.00 76.0 58.9 29.42 3.00 10.25 0.00 0.0 0.5 0.0
08/17/2019 16:00 0.00 74.0 65.8 29.43 1.00 6.00 0.00 0.0 0.8 0.0
08/17/2019 15:00 0.01 73.0 66.0 29.44 1.50 8.50 0.00 0.0 6.8 0.0
08/17/2019 14:00 0.00 71.0 70.9 29.44 0.25 3.75 0.00 0.0 15.3 0.0
08/17/2019 13:00 0.00 70.0 72.6 29.44 0.25 3.25 0.00 0.0 1.8 0.0
08/17/2019 12:00 0.00 69.0 77.2 29.45 0.00 0.50 0.00 0.0 0.0 0.0
08/17/2019 11:00 0.00 68.0 79.6 29.45 0.00 0.00 0.00 0.0 0.0 0.0
08/17/2019 10:00 0.00 67.0 76.7 29.44 0.00 1.50 0.00 0.0 29.0 0.0
08/17/2019 09:00 0.00 67.0 72.8 29.45 0.00 2.75 0.00 0.0 5.8 0.0
08/17/2019 08:00 0.00 67.0 74.7 29.44 0.00 0.00 0.00 0.0 0.0 0.0
08/17/2019 07:00 0.00 66.0 78.6 29.44 0.00 0.00 0.00 0.0 0.0 0.0
08/17/2019 06:00 0.00 67.0 79.2 29.45 0.00 0.00 0.00 0.0 0.0 0.0
08/17/2019 05:00 0.02 67.0 79.9 29.45 0.00 0.50 0.00 0.0 4.5 0.0
08/17/2019 04:00 0.00 67.0 77.4 29.45 0.00 2.25 0.00 0.0 0.0 0.0
08/17/2019 03:00 0.00 68.0 71.7 29.45 0.00 2.25 0.00 0.0 0.0 0.0
08/17/2019 02:00 0.00 67.0 71.6 29.45 0.00 3.75 0.00 0.3 32.8 0.0
08/17/2019 01:00 0.00 68.0 67.0 29.46 0.00 2.00 0.00 0.0 0.0 0.0
08/17/2019 00:00 0.00 67.0 68.4 29.46 0.25 4.50 0.00 0.0 6.0 0.0
08/16/2019 23:00 0.00 67.0 67.1 29.45 1.00 6.00 0.00 0.0 12.8 0.0
08/16/2019 22:00 0.00 68.0 64.3 29.43 2.25 8.50 0.00 0.0 0.0 0.0
08/16/2019 21:00 0.00 71.0 60.4 29.42 1.25 7.25 0.00 0.0 8.8 0.0
08/16/2019 20:00 0.00 74.0 54.5 29.41 2.50 10.25 0.00 0.0 1.8 0.0
08/16/2019 19:00 0.00 78.0 41.0 29.41 2.50 9.25 0.00 0.0 6.8 0.0
08/16/2019 18:00 0.00 83.0 31.7 29.41 2.75 10.50 0.00 0.0 7.3 0.0
08/16/2019 17:00 0.00 85.0 23.6 29.42 1.50 7.25 0.00 0.0 13.8 0.0
08/16/2019 16:00 0.00 81.0 31.7 29.43 0.75 5.00 0.00 0.0 43.0 0.0
08/16/2019 15:00 0.00 79.0 40.0 29.44 1.75 7.00 0.00 0.0 22.5 0.0
08/16/2019 14:00 0.00 78.0 45.6 29.45 1.00 4.75 0.00 0.3 28.5 0.0
08/16/2019 13:00 0.00 73.0 53.2 29.46 0.25 4.00 0.00 0.0 0.0 0.0
08/16/2019 12:00 0.00 71.0 62.3 29.47 0.75 4.75 0.00 0.0 37.0 0.0
08/16/2019 11:00 0.00 71.0 67.5 29.46 0.25 2.25 0.00 0.0 37.8 0.0
08/16/2019 10:00 0.00 67.0 77.1 29.45 0.00 1.25 0.00 0.0 14.3 0.0
08/16/2019 09:00 0.00 66.0 79.4 29.45 0.75 5.00 0.00 0.0 0.0 0.0
08/16/2019 08:00 0.01 65.0 81.6 29.43 0.75 5.25 0.00 0.0 0.0 0.0
08/16/2019 07:00 0.00 65.0 81.3 29.43 0.00 0.75 0.00 0.0 0.0 0.0
08/16/2019 06:00 0.00 66.0 80.4 29.43 0.25 2.25 0.00 0.0 0.0 0.0
08/16/2019 05:00 0.00 65.0 80.0 29.42 0.00 0.00 0.00 0.0 0.0 0.0
08/16/2019 04:00 0.14 65.0 80.6 29.42 0.00 1.75 0.00 0.0 19.3 0.0
08/16/2019 03:00 0.00 67.0 70.5 29.43 0.00 1.50 0.00 0.0 0.0 0.0
08/16/2019 02:00 0.00 67.0 68.7 29.45 0.00 1.25 0.00 0.0 42.5 0.0
08/16/2019 01:00 0.00 68.0 56.8 29.44 0.00 0.00 0.00 5.3 75.5 0.0
08/16/2019 00:00 0.00 69.0 52.6 29.43 0.00 0.00 0.00 0.0 0.0 0.0
08/15/2019 23:00 0.00 68.0 49.4 29.43 0.00 0.00 0.00 0.0 26.0 0.0
08/15/2019 22:00 0.00 70.0 45.4 29.43 0.50 5.00 0.00 0.0 35.8 0.0
08/15/2019 21:00 0.00 71.0 43.2 29.41 1.25 7.75 0.00 0.0 18.0 0.0
08/15/2019 20:00 0.00 74.0 41.9 29.40 1.75 11.50 0.00 0.0 16.3 0.0
08/15/2019 19:00 0.00 80.0 27.6 29.39 0.25 5.50 0.00 0.0 25.0 0.0
08/15/2019 18:00 0.00 81.0 27.5 29.39 1.00 6.75 0.00 0.0 40.3 0.0
08/15/2019 17:00 0.00 86.0 19.4 29.40 0.75 5.00 0.00 0.3 52.5 0.0
08/15/2019 16:00 0.00 86.0 19.6 29.41 0.75 6.75 0.00 0.0 35.3 0.0
08/15/2019 15:00 0.00 80.0 27.9 29.42 0.50 5.25 0.00 0.0 36.5 0.0
08/15/2019 14:00 0.00 76.0 30.1 29.43 1.00 5.50 0.00 0.0 13.8 0.0
08/15/2019 13:00 0.00 75.0 28.2 29.44 1.25 7.25 0.00 0.0 0.0 0.0
08/15/2019 12:00 0.00 73.0 31.3 29.44 2.50 8.50 0.00 0.0 0.0 0.0
08/15/2019 11:00 0.00 72.0 32.0 29.43 2.00 8.75 0.00 0.0 0.0 0.0
08/15/2019 10:00 0.00 69.0 49.4 29.42 0.75 5.00 0.00 0.0 0.0 0.0
08/15/2019 09:00 0.00 68.0 55.0 29.41 0.00 1.75 0.00 0.0 0.0 0.0
08/15/2019 08:00 0.00 63.0 75.8 29.40 0.00 0.00 0.00 0.0 10.8 0.0
08/15/2019 07:00 0.00 62.0 77.7 29.39 0.00 0.00 0.00 0.0 0.0 0.0
08/15/2019 06:00 0.00 62.0 77.9 29.37 0.00 0.00 0.00 0.0 0.0 0.0
08/15/2019 05:00 0.00 63.0 76.0 29.36 0.00 0.00 0.00 0.0 0.0 0.0
08/15/2019 04:00 0.00 64.0 74.0 29.35 0.00 0.00 0.00 0.0 0.0 0.0
08/15/2019 03:00 0.00 65.0 72.2 29.35 0.00 0.00 0.00 0.0 0.0 0.0
08/15/2019 02:00 0.00 66.0 69.0 29.35 0.00 0.00 0.00 0.0 8.0 0.0
08/15/2019 01:00 0.00 67.0 60.6 29.34 0.00 0.00 0.00 0.0 19.3 0.0
08/15/2019 00:00 0.00 69.0 56.0 29.32 0.00 1.50 0.00 0.0 10.3 0.0
08/14/2019 23:00 0.00 69.0 54.2 29.31 0.00 4.50 0.00 0.0 33.0 0.0
08/14/2019 22:00 0.00 72.0 57.9 29.29 0.00 2.75 0.00 0.0 22.0 0.0
08/14/2019 21:00 0.00 74.0 51.9 29.27 0.00 1.75 0.00 0.0 16.5 0.0
08/14/2019 20:00 0.00 77.0 37.2 29.27 0.00 0.50 0.00 0.0 36.3 0.0
08/14/2019 19:00 0.00 87.0 12.7 29.26 0.25 1.75 0.00 0.0 48.8 0.0
08/14/2019 18:00 0.00 87.0 12.8 29.25 1.00 5.75 0.00 0.3 51.5 0.0
08/14/2019 17:00 0.00 87.0 9.5 29.25 1.25 7.50 0.00 0.3 47.0 0.0
08/14/2019 16:00 0.00 84.0 13.8 29.25 1.75 7.25 0.00 0.0 48.0 0.0
08/14/2019 15:00 0.00 82.0 18.5 29.24 0.25 5.50 0.00 0.0 43.3 0.0
08/14/2019 14:00 0.00 80.0 17.3 29.25 1.25 7.00 0.00 0.0 7.8 0.0
08/14/2019 13:00 0.00 77.0 20.0 29.26 1.00 7.25 0.00 0.0 8.8 0.0
08/14/2019 12:00 0.00 73.0 33.3 29.27 1.75 7.50 0.00 0.0 0.0 0.0
08/14/2019 11:00 0.00 72.0 36.8 29.27 1.75 8.50 0.00 0.0 2.3 0.0
08/14/2019 10:00 0.00 70.0 39.5 29.26 2.50 9.75 0.00 0.0 0.0 0.0
08/14/2019 09:00 0.00 68.0 46.1 29.25 2.00 8.75 0.00 0.0 0.0 0.0
08/14/2019 08:00 0.00 65.0 53.3 29.24 0.50 5.00 0.00 0.0 0.0 0.0
08/14/2019 07:00 0.00 61.0 70.8 29.23 0.00 1.00 0.00 0.0 0.0 0.0
08/14/2019 06:00 0.00 63.0 65.4 29.21 0.50 4.75 0.00 0.0 0.0 0.0
08/14/2019 05:00 0.00 66.0 52.4 29.20 3.25 11.75 0.00 0.0 0.0 0.0
08/14/2019 04:00 0.00 67.0 53.4 29.19 4.25 13.25 0.00 0.0 0.0 0.0
08/14/2019 03:00 0.00 66.0 65.5 29.19 0.50 3.75 0.00 0.0 0.0 0.0
08/14/2019 02:00 0.00 66.0 79.5 29.19 0.00 3.25 0.00 0.0 0.0 0.0
08/14/2019 01:00 0.00 67.0 82.9 29.18 0.00 0.00 0.00 0.0 25.3 0.0
08/14/2019 00:00 0.00 68.0 82.0 29.18 0.00 0.00 0.00 0.0 0.0 0.0
08/13/2019 23:00 0.00 69.0 82.4 29.17 0.00 0.00 0.00 0.0 15.0 0.0
08/13/2019 22:00 0.00 70.0 81.5 29.16 0.00 0.00 0.00 0.3 26.5 0.0
08/13/2019 21:00 0.00 71.0 79.3 29.14 0.25 1.50 0.00 0.0 19.0 0.0
08/13/2019 20:00 0.00 71.0 81.2 29.13 0.00 0.00 0.00 0.0 62.8 0.0
08/13/2019 19:00 0.20 71.0 81.4 29.11 0.25 4.00 0.00 0.5 87.0 0.0
08/13/2019 18:00 0.00 77.0 68.8 29.11 0.00 2.25 0.00 0.0 30.3 0.0
08/13/2019 17:00 0.00 79.0 56.2 29.11 0.50 6.75 0.00 0.0 27.0 0.0
08/13/2019 16:00 0.00 75.0 69.0 29.11 0.00 2.50 0.00 0.0 50.3 0.0
08/13/2019 15:00 0.00 79.0 53.5 29.13 0.50 5.00 0.00 0.3 54.0 0.0
08/13/2019 14:00 0.00 79.0 50.0 29.15 0.75 6.00 0.00 0.0 15.0 0.0
08/13/2019 13:00 0.00 78.0 54.3 29.15 0.50 5.50 0.00 0.3 50.0 0.0
08/13/2019 12:00 0.00 75.0 60.0 29.15 0.50 5.50 0.00 0.0 41.3 0.0
08/13/2019 11:00 0.01 73.0 67.2 29.16 0.00 4.75 0.00 0.0 43.5 0.0
08/13/2019 10:00 0.02 70.0 79.1 29.16 0.00 0.75 0.00 0.0 36.5 0.0
08/13/2019 09:00 0.00 70.0 76.2 29.16 0.00 0.25 0.00 0.3 39.5 0.0
08/13/2019 08:00 0.00 70.0 72.0 29.15 0.00 0.00 0.00 0.3 48.3 0.0
08/13/2019 07:00 0.00 71.0 61.6 29.15 0.00 0.00 0.00 0.5 62.8 0.0
08/13/2019 06:00 0.00 70.0 63.2 29.14 0.00 0.25 0.00 0.3 55.0 0.0
08/13/2019 05:00 0.00 71.0 58.7 29.14 0.50 5.00 0.00 0.0 42.0 0.0
08/13/2019 04:00 0.00 73.0 51.9 29.14 1.50 8.00 0.00 0.3 52.3 0.0
08/13/2019 03:00 0.00 74.0 48.6 29.15 1.25 9.00 0.00 0.0 36.8 0.0
08/13/2019 02:00 0.00 74.0 47.2 29.16 0.75 8.50 0.00 0.0 28.0 0.0
08/13/2019 01:00 0.00 71.0 54.2 29.17 0.00 3.75 0.00 0.0 20.0 0.0
08/13/2019 00:00 0.00 72.0 53.4 29.18 0.00 3.25 0.00 0.0 11.5 0.0
08/12/2019 23:00 0.00 73.0 51.0 29.19 0.00 2.75 0.00 0.0 43.0 0.0
08/12/2019 22:00 0.00 74.0 52.8 29.19 0.00 1.00 0.00 0.0 9.0 0.0
08/12/2019 21:00 0.00 76.0 52.8 29.18 0.00 0.00 0.00 0.0 16.5 0.0
08/12/2019 20:00 0.00 78.0 41.9 29.19 0.00 1.25 0.00 0.0 35.3 0.0
08/12/2019 19:00 0.00 81.0 29.6 29.19 0.50 7.00 0.00 0.0 48.5 0.0
08/12/2019 18:00 0.00 85.0 23.0 29.20 1.75 9.00 0.00 0.3 49.0 0.0
08/12/2019 17:00 0.00 84.0 20.7 29.20 1.75 10.25 0.00 0.0 44.8 0.0
08/12/2019 16:00 0.00 86.0 14.6 29.21 2.25 9.75 0.00 0.0 38.0 0.0
08/12/2019 15:00 0.00 85.0 17.1 29.23 2.50 10.75 0.00 0.3 49.0 0.0
08/12/2019 14:00 0.00 83.0 22.0 29.24 2.50 10.00 0.00 0.0 42.8 0.0
08/12/2019 13:00 0.00 81.0 26.9 29.27 2.25 8.25 0.00 0.3 38.5 0.0
08/12/2019 12:00 0.00 75.0 39.9 29.28 1.75 8.50 0.00 0.3 51.8 0.0
08/12/2019 11:00 0.00 72.0 42.7 29.29 1.25 7.00 0.00 0.0 56.3 0.0
08/12/2019 10:00 0.00 69.0 47.1 29.30 1.25 7.25 0.00 0.0 55.5 0.0
08/12/2019 09:00 0.00 68.0 56.5 29.30 0.00 0.50 0.00 0.5 52.8 0.0
08/12/2019 08:00 0.00 63.0 69.4 29.31 0.00 0.00 0.00 0.3 14.8 0.0
08/12/2019 07:00 0.00 62.0 69.3 29.30 0.00 0.25 0.00 0.8 30.0 0.0
08/12/2019 06:00 0.00 62.0 68.5 29.28 0.00 0.50 0.00 0.8 32.0 0.0
08/12/2019 05:00 0.00 64.0 61.7 29.29 0.00 1.50 0.00 0.0 8.0 0.0
08/12/2019 04:00 0.00 63.0 63.8 29.29 0.00 0.50 0.00 0.3 19.8 0.0
08/12/2019 03:00 0.00 63.0 62.3 29.30 0.00 0.00 0.00 0.0 7.5 0.0
08/12/2019 02:00 0.00 64.0 60.5 29.30 0.00 1.25 0.00 0.0 0.0 0.0
08/12/2019 01:00 0.00 65.0 57.5 29.31 0.00 0.25 0.00 0.3 30.0 0.0
08/12/2019 00:00 0.00 67.0 53.6 29.31 0.00 2.75 0.00 0.8 55.0 0.0
08/11/2019 23:00 0.00 68.0 49.4 29.30 0.00 2.75 0.00 0.0 43.5 0.0
08/11/2019 22:00 0.00 68.0 47.8 29.29 0.00 1.25 0.00 0.0 17.5 0.0
08/11/2019 21:00 0.00 71.0 41.9 29.28 0.25 6.75 0.00 0.0 33.3 0.0
08/11/2019 20:00 0.00 75.0 29.9 29.27 2.00 10.50 0.00 0.0 56.8 0.0
08/11/2019 19:00 0.00 75.0 25.6 29.27 3.50 13.50 0.00 0.0 40.5 0.0
08/11/2019 18:00 0.00 82.0 15.3 29.27 2.75 12.50 0.00 0.3 57.3 0.0
08/11/2019 17:00 0.00 81.0 15.1 29.27 4.25 14.50 0.00 0.3 49.3 0.0
08/11/2019 16:00 0.00 79.0 17.7 29.28 4.25 13.75 0.00 0.0 47.3 0.0
08/11/2019 15:00 0.00 74.0 28.6 29.30 3.25 14.50 0.00 0.0 40.5 0.0
08/11/2019 14:00 0.00 74.0 27.0 29.30 3.50 13.75 0.00 0.0 38.0 0.0
08/11/2019 13:00 0.00 71.0 33.0 29.30 3.25 12.00 0.00 0.0 32.8 0.0
08/11/2019 12:00 0.00 70.0 41.1 29.31 3.00 11.50 0.00 0.0 52.0 0.0
08/11/2019 11:00 0.00 67.0 44.5 29.31 2.50 12.00 0.00 0.0 37.5 0.0
08/11/2019 10:00 0.00 64.0 51.7 29.31 3.25 13.25 0.00 0.0 45.8 0.0
08/11/2019 09:00 0.00 63.0 56.6 29.31 2.75 11.75 0.00 0.0 44.3 0.0
08/11/2019 08:00 0.00 61.0 63.4 29.29 0.50 6.50 0.00 0.0 45.5 0.0
08/11/2019 07:00 0.00 59.0 65.0 29.27 1.25 7.00 0.00 0.0 44.5 0.0
08/11/2019 06:00 0.00 59.0 67.0 29.25 0.50 5.00 0.00 0.5 53.0 0.0
08/11/2019 05:00 0.00 60.0 61.7 29.24 0.00 4.25 0.00 0.0 40.5 0.0
08/11/2019 04:00 0.00 59.0 62.4 29.24 1.50 9.50 0.00 0.0 41.0 0.0
08/11/2019 03:00 0.00 60.0 60.1 29.24 1.25 9.25 0.00 0.0 65.0 0.0
08/11/2019 02:00 0.00 60.0 58.9 29.24 0.50 8.50 0.00 0.0 48.0 0.0
08/11/2019 01:00 0.00 60.0 60.1 29.23 1.50 10.25 0.00 0.0 46.5 0.0
08/11/2019 00:00 0.00 61.0 56.1 29.22 0.50 4.75 0.00 0.0 26.5 0.0
08/10/2019 23:00 0.00 63.0 53.4 29.21 1.50 9.75 0.00 0.0 37.5 0.0
08/10/2019 22:00 0.00 62.0 57.1 29.20 0.00 4.75 0.00 0.5 53.8 0.0
08/10/2019 21:00 0.00 65.0 48.9 29.18 1.00 8.00 0.00 0.0 37.5 0.0
08/10/2019 20:00 0.00 68.0 37.5 29.16 3.50 15.25 0.00 0.0 34.0 0.0
08/10/2019 19:00 0.00 75.0 14.2 29.14 4.50 15.50 0.00 0.0 36.5 0.0
08/10/2019 18:00 0.00 77.0 13.7 29.11 5.00 17.25 0.00 0.0 30.0 0.0
08/10/2019 17:00 0.00 78.0 13.4 29.09 5.00 16.75 0.00 0.0 39.0 0.0
08/10/2019 16:00 0.00 75.0 19.6 29.09 4.25 13.50 0.00 0.0 47.0 0.0
08/10/2019 15:00 0.00 71.0 33.9 29.11 3.75 16.50 0.00 0.0 36.5 0.0
08/10/2019 14:00 0.00 71.0 31.8 29.10 4.00 17.25 0.00 0.0 39.0 0.0
08/10/2019 13:00 0.00 73.0 30.7 29.10 3.00 14.25 0.00 0.0 40.0 0.0
08/10/2019 12:00 0.00 71.0 38.2 29.11 4.50 14.75 0.00 0.0 44.5 0.0
08/10/2019 11:00 0.00 70.0 43.4 29.10 3.75 14.00 0.00 0.0 45.5 0.0
08/10/2019 10:00 0.00 67.0 52.0 29.10 3.25 12.75 0.00 0.0 33.8 0.0
08/10/2019 09:00 0.00 66.0 54.2 29.10 2.25 11.75 0.00 0.0 37.8 0.0
08/10/2019 08:00 0.00 64.0 56.0 29.09 1.50 9.25 0.00 0.3 53.3 0.0
08/10/2019 07:00 0.00 63.0 59.8 29.08 0.50 6.50 0.00 0.0 57.8 0.0
08/10/2019 06:00 0.00 64.0 56.1 29.07 0.75 7.75 0.00 0.0 51.3 0.0
08/10/2019 05:00 0.00 64.0 58.3 29.07 0.00 2.75 0.00 0.0 34.8 0.0
08/10/2019 04:00 -- 64.0 62.3 -- -- -- -- -- -- --
08/10/2019 03:00 0.00 65.0 55.0 29.08 0.33 7.00 0.00 0.0 57.0 0.0
08/10/2019 02:00 0.00 63.0 60.5 29.09 0.00 1.25 0.00 0.3 38.8 0.0
08/10/2019 01:00 0.00 67.0 47.0 29.09 0.25 2.25 0.00 0.3 48.8 0.0
08/10/2019 00:00 0.00 68.0 46.5 29.11 1.50 8.00 0.00 0.0 35.8 0.0
08/09/2019 23:00 0.01 67.0 58.5 29.09 0.25 2.75 0.00 0.0 16.5 0.0
08/09/2019 22:00 0.00 68.0 69.4 29.07 0.00 0.25 0.00 0.0 0.0 0.0
08/09/2019 21:00 0.00 67.0 73.4 29.06 0.00 2.25 0.00 0.0 21.0 0.0
08/09/2019 20:00 0.00 70.0 47.5 29.05 3.75 15.50 0.00 0.0 51.8 0.0
08/09/2019 19:00 0.00 86.0 12.8 29.02 2.50 11.25 0.00 0.0 34.8 0.0
08/09/2019 18:00 0.00 86.0 15.1 29.02 1.25 8.75 0.00 0.0 43.0 0.0
08/09/2019 17:00 0.00 85.0 15.6 29.02 2.00 9.50 0.00 0.0 39.8 0.0
08/09/2019 16:00 0.00 84.0 11.9 29.03 2.25 11.00 0.00 0.0 57.8 0.0
08/09/2019 15:00 0.00 83.0 18.1 29.05 2.50 10.00 0.00 0.0 35.0 0.0
08/09/2019 14:00 0.00 79.0 25.4 29.06 2.25 11.25 0.00 0.0 40.3 0.0
08/09/2019 13:00 0.00 78.0 28.4 29.06 2.75 11.00 0.00 0.3 50.3 0.0
08/09/2019 12:00 0.00 77.0 39.1 29.06 2.25 10.75 0.00 0.0 43.8 0.0
08/09/2019 11:00 0.00 73.0 48.1 29.06 2.50 11.50 0.00 0.0 41.3 0.0
08/09/2019 10:00 0.00 72.0 56.5 29.06 1.75 11.00 0.00 0.0 42.3 0.0
08/09/2019 09:00 0.00 69.0 61.4 29.05 0.50 3.75 0.00 0.5 40.0 0.0
08/09/2019 08:00 0.00 68.0 63.4 29.04 0.50 6.75 0.00 0.0 36.5 0.0
08/09/2019 07:00 0.00 67.0 67.4 29.02 1.00 8.25 0.00 0.3 37.3 0.0
08/09/2019 06:00 0.00 67.0 64.3 29.01 1.00 6.75 0.00 0.0 37.8 0.0
08/09/2019 05:00 0.00 67.0 67.7 29.00 0.50 5.25 0.00 0.0 24.8 0.0
08/09/2019 04:00 0.00 69.0 60.7 29.00 2.75 11.75 0.00 0.0 43.5 0.0
08/09/2019 03:00 0.00 69.0 58.7 28.99 2.50 11.25 0.00 0.3 41.3 0.0
08/09/2019 02:00 0.00 71.0 56.5 28.98 2.00 10.75 0.00 0.0 39.0 0.0
08/09/2019 01:00 0.00 70.0 61.9 28.98 0.00 4.50 0.00 0.0 33.5 0.0
08/09/2019 00:00 0.00 72.0 61.0 28.98 0.50 5.25 0.00 0.0 38.5 0.0
08/08/2019 23:00 0.00 72.0 57.9 28.98 0.25 4.00 0.00 0.0 39.3 0.0
08/08/2019 22:00 0.00 74.0 58.5 28.99 0.00 5.25 0.00 0.0 35.5 0.0
08/08/2019 21:00 0.00 77.0 47.7 28.99 1.50 9.50 0.00 0.0 43.0 0.0
08/08/2019 20:00 0.00 81.0 37.1 28.98 2.25 10.75 0.00 0.0 41.8 0.0
08/08/2019 19:00 0.00 83.0 39.5 28.97 0.50 5.75 0.00 0.0 48.5 0.0
08/08/2019 18:00 0.00 90.0 29.4 28.98 0.75 5.75 0.00 0.0 38.8 0.0
08/08/2019 17:00 0.00 88.0 32.5 28.98 0.75 6.00 0.00 0.0 47.0 0.0
08/08/2019 16:00 0.00 84.0 39.0 28.99 1.50 9.75 0.00 0.0 34.8 0.0
08/08/2019 15:00 0.00 81.0 50.7 29.00 1.00 7.25 0.00 0.0 39.3 0.0
08/08/2019 14:00 0.00 77.0 64.3 29.01 1.25 8.50 0.00 0.0 33.0 0.0
08/08/2019 13:00 0.00 79.0 53.0 29.02 0.50 6.25 0.00 0.3 31.3 0.0
08/08/2019 12:00 0.00 75.0 63.7 29.04 0.00 0.00 0.00 0.0 30.3 0.0
08/08/2019 11:00 0.00 72.0 72.2 29.05 0.00 1.00 0.00 0.3 39.0 0.0
08/08/2019 10:00 0.00 70.0 79.6 29.06 0.00 1.00 0.00 0.3 37.5 0.0
08/08/2019 09:00 0.00 69.0 80.5 29.07 0.00 2.50 0.00 0.0 19.8 0.0
08/08/2019 08:00 0.00 68.0 83.4 29.08 0.00 2.25 0.00 0.0 31.5 0.0
08/08/2019 07:00 0.00 68.0 83.2 29.08 0.25 3.75 0.00 0.0 32.5 0.0
08/08/2019 06:00 0.00 68.0 82.3 29.09 0.00 1.25 0.00 0.3 40.5 0.0
08/08/2019 05:00 0.03 68.0 82.4 29.10 0.00 0.25 0.00 0.3 43.5 0.0
08/08/2019 04:00 0.03 68.0 81.9 29.12 0.00 0.50 0.00 0.0 38.0 0.0
08/08/2019 03:00 0.00 68.0 80.7 29.14 0.00 2.75 0.00 0.0 18.0 0.0
08/08/2019 02:00 0.01 68.0 80.7 29.15 0.25 3.25 0.00 0.0 18.5 0.0
08/08/2019 01:00 0.02 69.0 81.5 29.17 0.00 3.00 0.00 0.8 49.8 0.0
08/08/2019 00:00 0.03 69.0 81.3 29.18 0.50 7.25 0.00 0.0 43.8 0.0
08/07/2019 23:00 0.00 71.0 82.8 29.18 0.00 0.00 0.00 0.0 20.5 0.0
08/07/2019 22:00 0.01 71.0 82.7 29.17 0.00 0.50 0.00 0.0 18.8 0.0
08/07/2019 21:00 0.00 72.0 81.9 29.19 0.00 0.00 0.00 0.0 0.0 0.0
08/07/2019 20:00 0.03 72.0 82.0 29.18 0.00 0.00 0.00 0.0 0.0 0.0
08/07/2019 19:00 0.12 72.0 83.2 29.18 0.25 4.25 0.00 2.0 141.3 0.0
08/07/2019 18:00 0.02 74.0 74.5 29.18 2.00 11.00 0.00 0.0 54.3 0.0
08/07/2019 17:00 0.00 84.0 42.7 29.16 0.75 6.00 0.00 0.0 30.0 0.0
08/07/2019 16:00 0.00 83.0 44.8 29.18 1.00 8.50 0.00 0.0 42.8 0.0
08/07/2019 15:00 0.00 82.0 45.2 29.21 0.00 2.50 0.00 0.0 31.5 0.0
08/07/2019 14:00 0.00 81.0 46.1 29.22 0.25 5.75 0.00 0.0 38.3 0.0
08/07/2019 13:00 0.00 79.0 51.1 29.22 0.25 3.75 0.00 0.0 11.0 0.0
08/07/2019 12:00 0.00 76.0 58.1 29.23 0.00 3.25 0.00 0.3 35.8 0.0
08/07/2019 11:00 0.00 73.0 65.2 29.23 0.00 0.75 0.00 0.0 48.5 0.0
08/07/2019 10:00 0.00 73.0 65.1 29.23 0.00 0.50 0.00 0.0 30.5 0.0
08/07/2019 09:00 0.00 70.0 72.6 29.23 0.00 2.75 0.00 0.3 21.5 0.0
08/07/2019 08:00 0.00 69.0 75.8 29.23 0.00 2.75 0.00 0.0 17.8 0.0
08/07/2019 07:00 0.00 68.0 78.3 29.22 0.00 0.00 0.00 0.0 10.0 0.0
08/07/2019 06:00 0.00 68.0 76.5 29.21 0.00 0.25 0.00 0.0 0.0 0.0
08/07/2019 05:00 0.00 68.0 75.8 29.20 0.00 0.00 0.00 0.0 0.0 0.0
08/07/2019 04:00 -- 69.0 75.4 -- -- -- -- -- -- --
08/07/2019 03:00 0.00 70.0 75.1 29.21 0.00 1.00 0.00 0.0 11.7 0.0
08/07/2019 02:00 0.00 70.0 75.8 29.22 0.00 1.75 0.00 0.0 30.3 0.0
08/07/2019 01:00 0.00 71.0 72.7 29.22 0.00 2.25 0.00 0.0 13.5 0.0
08/07/2019 00:00 0.00 70.0 73.3 29.23 0.00 0.75 0.00 0.0 24.3 0.0
08/06/2019 23:00 0.00 72.0 66.5 29.23 0.00 1.50 0.00 0.0 0.0 0.0
08/06/2019 22:00 0.00 73.0 63.2 29.22 0.00 2.50 0.00 0.0 0.0 0.0
08/06/2019 21:00 0.00 75.0 61.0 29.21 0.75 5.75 0.00 0.0 10.8 0.0
08/06/2019 20:00 0.00 78.0 53.5 29.20 2.50 11.25 0.00 0.0 9.5 0.0
08/06/2019 19:00 0.00 83.0 40.2 29.21 1.25 8.50 0.00 0.0 10.5 0.0
08/06/2019 18:00 0.00 80.0 42.7 29.21 2.50 10.00 0.00 0.0 1.0 0.0
08/06/2019 17:00 0.00 84.0 32.0 29.21 4.00 14.00 0.00 0.0 7.5 0.0
08/06/2019 16:00 0.00 87.0 19.2 29.23 2.00 10.00 0.00 0.0 29.0 0.0
08/06/2019 15:00 0.00 86.0 19.4 29.25 1.50 9.75 0.00 0.0 30.0 0.0
08/06/2019 14:00 0.00 84.0 18.9 29.27 1.25 8.50 0.00 0.0 21.3 0.0
08/06/2019 13:00 0.00 82.0 22.4 29.28 0.75 7.00 0.00 0.0 46.3 0.0
08/06/2019 12:00 0.00 76.0 46.8 29.30 0.00 3.25 0.00 0.5 67.5 0.0
08/06/2019 11:00 0.00 72.0 52.7 29.31 0.00 1.75 0.00 0.5 58.3 0.0
08/06/2019 10:00 0.00 68.0 61.1 29.31 0.00 0.25 0.00 0.3 47.5 0.0
08/06/2019 09:00 0.00 66.0 71.3 29.31 0.00 0.00 0.00 0.3 37.3 0.0
08/06/2019 08:00 0.00 62.0 75.0 29.32 0.00 0.00 0.00 0.0 0.0 0.0
08/06/2019 07:00 0.00 61.0 75.4 29.31 0.00 0.00 0.00 0.0 0.0 0.0
08/06/2019 06:00 0.00 60.0 76.5 29.31 0.00 0.00 0.00 0.0 0.0 0.0
08/06/2019 05:00 0.00 61.0 74.3 29.31 0.00 0.00 0.00 0.0 0.0 0.0
08/06/2019 04:00 0.00 62.0 73.5 29.31 0.00 0.00 0.00 0.0 0.0 0.0
08/06/2019 03:00 0.00 63.0 72.3 29.32 0.00 0.25 0.00 0.0 0.0 0.0
08/06/2019 02:00 0.00 64.0 69.0 29.32 0.00 0.25 0.00 0.0 0.0 0.0
08/06/2019 01:00 0.00 65.0 69.1 29.32 0.00 0.50 0.00 0.0 0.0 0.0
08/06/2019 00:00 0.00 66.0 64.8 29.33 0.00 0.25 0.00 0.0 0.0 0.0
08/05/2019 23:00 0.00 68.0 58.8 29.32 0.00 0.00 0.00 0.0 0.0 0.0
08/05/2019 22:00 0.00 70.0 44.9 29.32 0.00 0.00 0.00 0.0 0.0 0.0
08/05/2019 21:00 0.00 73.0 35.0 29.31 0.00 0.00 0.00 0.0 30.0 0.0
08/05/2019 20:00 0.00 78.0 25.5 29.31 0.50 5.25 0.00 0.0 40.0 0.0
08/05/2019 19:00 -- -- -- -- -- -- -- -- -- --
08/05/2019 18:00 -- -- -- -- -- -- -- -- -- --
08/05/2019 17:00 -- -- -- -- -- -- -- -- -- --